sensor_id;sensor_type;location;lat;lon;timestamp;pressure;altitude;pressure_sealevel;temperature;humidity
20889;BME280;10604;51.976;7.594;2023-05-21T00:01:33;101063.38;;;19.02;59.06
20889;BME280;10604;51.976;7.594;2023-05-21T00:03:59;101063.44;;;19.00;58.87
20889;BME280;10604;51.976;7.594;2023-05-21T00:06:24;101064.47;;;18.98;59.10
20889;BME280;10604;51.976;7.594;2023-05-21T00:08:50;101063.31;;;18.88;59.64
20889;BME280;10604;51.976;7.594;2023-05-21T00:11:15;101059.38;;;18.79;59.74
20889;BME280;10604;51.976;7.594;2023-05-21T00:13:41;101056.81;;;18.62;59.92
20889;BME280;10604;51.976;7.594;2023-05-21T00:16:06;101054.56;;;18.70;60.08
20889;BME280;10604;51.976;7.594;2023-05-21T00:18:32;101052.00;;;18.68;60.24
20889;BME280;10604;51.976;7.594;2023-05-21T00:20:58;101048.28;;;18.71;60.74
20889;BME280;10604;51.976;7.594;2023-05-21T00:23:24;101049.72;;;18.76;60.11
20889;BME280;10604;51.976;7.594;2023-05-21T00:25:51;101042.72;;;18.60;60.77
20889;BME280;10604;51.976;7.594;2023-05-21T00:28:16;101040.25;;;18.71;60.36
20889;BME280;10604;51.976;7.594;2023-05-21T00:30:42;101045.44;;;18.74;60.36
20889;BME280;10604;51.976;7.594;2023-05-21T00:33:07;101036.34;;;18.47;60.88
20889;BME280;10604;51.976;7.594;2023-05-21T00:35:34;101044.06;;;18.67;60.22
20889;BME280;10604;51.976;7.594;2023-05-21T00:38:00;101034.16;;;18.83;60.05
20889;BME280;10604;51.976;7.594;2023-05-21T00:40:26;101032.44;;;18.68;60.40
20889;BME280;10604;51.976;7.594;2023-05-21T00:42:53;101034.59;;;18.61;61.00
20889;BME280;10604;51.976;7.594;2023-05-21T00:45:21;101033.53;;;18.64;60.85
20889;BME280;10604;51.976;7.594;2023-05-21T00:47:48;101026.16;;;18.53;61.12
20889;BME280;10604;51.976;7.594;2023-05-21T00:50:18;101030.81;;;18.34;62.23
20889;BME280;10604;51.976;7.594;2023-05-21T00:52:44;101027.03;;;18.22;62.31
20889;BME280;10604;51.976;7.594;2023-05-21T00:55:10;101023.91;;;18.46;61.73
20889;BME280;10604;51.976;7.594;2023-05-21T00:57:36;101014.75;;;18.50;61.70
20889;BME280;10604;51.976;7.594;2023-05-21T01:00:03;101014.59;;;18.53;61.57
20889;BME280;10604;51.976;7.594;2023-05-21T01:02:30;101017.44;;;18.50;61.09
20889;BME280;10604;51.976;7.594;2023-05-21T01:04:58;101010.00;;;18.09;62.57
20889;BME280;10604;51.976;7.594;2023-05-21T01:07:24;101008.03;;;17.97;62.94
20889;BME280;10604;51.976;7.594;2023-05-21T01:09:50;101011.72;;;18.10;62.80
20889;BME280;10604;51.976;7.594;2023-05-21T01:12:16;101004.44;;;18.44;62.10
20889;BME280;10604;51.976;7.594;2023-05-21T01:14:42;101000.19;;;18.25;62.23
20889;BME280;10604;51.976;7.594;2023-05-21T01:17:08;101002.59;;;18.14;62.65
20889;BME280;10604;51.976;7.594;2023-05-21T01:19:35;100999.09;;;18.44;62.33
20889;BME280;10604;51.976;7.594;2023-05-21T01:22:06;100997.06;;;18.17;63.03
20889;BME280;10604;51.976;7.594;2023-05-21T01:24:32;100996.72;;;18.23;62.37
20889;BME280;10604;51.976;7.594;2023-05-21T01:26:59;100991.91;;;18.14;62.62
20889;BME280;10604;51.976;7.594;2023-05-21T01:29:25;100996.94;;;18.34;62.45
20889;BME280;10604;51.976;7.594;2023-05-21T01:34:45;100986.41;;;18.17;63.25
20889;BME280;10604;51.976;7.594;2023-05-21T01:37:16;100988.63;;;18.09;63.43
20889;BME280;10604;51.976;7.594;2023-05-21T01:39:51;100987.63;;;17.96;63.89
20889;BME280;10604;51.976;7.594;2023-05-21T01:42:19;100994.84;;;18.10;63.54
20889;BME280;10604;51.976;7.594;2023-05-21T01:44:47;100986.56;;;18.14;63.00
20889;BME280;10604;51.976;7.594;2023-05-21T01:47:14;100991.09;;;18.28;62.61
20889;BME280;10604;51.976;7.594;2023-05-21T01:49:42;100985.69;;;18.29;62.91
20889;BME280;10604;51.976;7.594;2023-05-21T01:52:07;100985.63;;;18.15;63.04
20889;BME280;10604;51.976;7.594;2023-05-21T01:54:33;100984.47;;;18.19;63.06
20889;BME280;10604;51.976;7.594;2023-05-21T01:56:58;100989.44;;;18.11;62.99
20889;BME280;10604;51.976;7.594;2023-05-21T01:59:25;100990.78;;;18.18;63.41
20889;BME280;10604;51.976;7.594;2023-05-21T02:01:51;100992.31;;;18.22;62.85
20889;BME280;10604;51.976;7.594;2023-05-21T02:04:17;100988.06;;;18.34;62.78
20889;BME280;10604;51.976;7.594;2023-05-21T02:06:42;100985.34;;;18.20;62.85
20889;BME280;10604;51.976;7.594;2023-05-21T02:09:08;100976.88;;;18.27;63.02
20889;BME280;10604;51.976;7.594;2023-05-21T02:11:33;100978.38;;;18.17;62.97
20889;BME280;10604;51.976;7.594;2023-05-21T02:13:59;100975.00;;;18.29;63.48
20889;BME280;10604;51.976;7.594;2023-05-21T02:16:24;100978.25;;;18.34;62.68
20889;BME280;10604;51.976;7.594;2023-05-21T02:18:50;100976.03;;;18.27;62.70
20889;BME280;10604;51.976;7.594;2023-05-21T02:21:17;100970.75;;;18.11;63.13
20889;BME280;10604;51.976;7.594;2023-05-21T02:23:44;100966.06;;;17.99;63.75
20889;BME280;10604;51.976;7.594;2023-05-21T02:26:10;100970.75;;;18.11;63.96
20889;BME280;10604;51.976;7.594;2023-05-21T02:28:35;100975.72;;;18.02;64.22
20889;BME280;10604;51.976;7.594;2023-05-21T02:31:00;100977.59;;;18.15;63.37
20889;BME280;10604;51.976;7.594;2023-05-21T02:33:26;100968.72;;;18.15;63.72
20889;BME280;10604;51.976;7.594;2023-05-21T02:35:51;100962.31;;;18.03;64.20
20889;BME280;10604;51.976;7.594;2023-05-21T02:38:17;100970.53;;;18.14;63.40
20889;BME280;10604;51.976;7.594;2023-05-21T02:40:44;100964.03;;;18.04;63.97
20889;BME280;10604;51.976;7.594;2023-05-21T02:43:10;100966.94;;;17.84;64.54
20889;BME280;10604;51.976;7.594;2023-05-21T02:45:35;100966.44;;;17.93;64.65
20889;BME280;10604;51.976;7.594;2023-05-21T02:48:00;100966.50;;;18.07;63.79
20889;BME280;10604;51.976;7.594;2023-05-21T02:50:26;100967.81;;;18.00;64.18
20889;BME280;10604;51.976;7.594;2023-05-21T02:52:51;100952.28;;;18.07;63.98
20889;BME280;10604;51.976;7.594;2023-05-21T02:55:17;100956.25;;;18.15;63.66
20889;BME280;10604;51.976;7.594;2023-05-21T02:57:42;100954.72;;;18.11;63.74
20889;BME280;10604;51.976;7.594;2023-05-21T03:00:08;100961.34;;;18.04;63.81
20889;BME280;10604;51.976;7.594;2023-05-21T03:02:33;100954.53;;;18.14;64.00
20889;BME280;10604;51.976;7.594;2023-05-21T03:04:59;100957.91;;;18.02;64.16
20889;BME280;10604;51.976;7.594;2023-05-21T03:07:24;100959.72;;;18.02;64.29
20889;BME280;10604;51.976;7.594;2023-05-21T03:09:50;100959.56;;;17.89;64.36
20889;BME280;10604;51.976;7.594;2023-05-21T03:12:15;100954.72;;;17.80;65.01
20889;BME280;10604;51.976;7.594;2023-05-21T03:14:41;100959.91;;;17.83;64.64
20889;BME280;10604;51.976;7.594;2023-05-21T03:17:08;100953.19;;;17.76;64.90
20889;BME280;10604;51.976;7.594;2023-05-21T03:19:40;100947.50;;;17.82;64.60
20889;BME280;10604;51.976;7.594;2023-05-21T03:22:05;100956.97;;;17.72;64.85
20889;BME280;10604;51.976;7.594;2023-05-21T03:24:31;100946.81;;;17.78;64.87
20889;BME280;10604;51.976;7.594;2023-05-21T03:26:58;100949.75;;;17.74;65.05
20889;BME280;10604;51.976;7.594;2023-05-21T03:29:25;100953.34;;;17.73;65.33
20889;BME280;10604;51.976;7.594;2023-05-21T03:31:51;100953.00;;;17.79;64.89
20889;BME280;10604;51.976;7.594;2023-05-21T03:34:17;100948.19;;;17.85;65.02
20889;BME280;10604;51.976;7.594;2023-05-21T03:36:44;100949.56;;;17.77;65.42
20889;BME280;10604;51.976;7.594;2023-05-21T03:39:10;100949.63;;;17.91;64.61
20889;BME280;10604;51.976;7.594;2023-05-21T03:41:35;100946.66;;;17.81;65.05
20889;BME280;10604;51.976;7.594;2023-05-21T03:44:01;100947.66;;;17.63;65.00
20889;BME280;10604;51.976;7.594;2023-05-21T03:46:26;100947.38;;;17.99;64.75
20889;BME280;10604;51.976;7.594;2023-05-21T03:48:52;100951.56;;;17.89;64.95
20889;BME280;10604;51.976;7.594;2023-05-21T03:51:18;100950.41;;;17.77;65.38
20889;BME280;10604;51.976;7.594;2023-05-21T03:53:44;100949.16;;;17.69;65.37
20889;BME280;10604;51.976;7.594;2023-05-21T03:56:09;100950.84;;;17.70;65.49
20889;BME280;10604;51.976;7.594;2023-05-21T03:58:35;100953.69;;;17.67;65.85
20889;BME280;10604;51.976;7.594;2023-05-21T04:01:01;100955.41;;;17.83;64.93
20889;BME280;10604;51.976;7.594;2023-05-21T04:03:27;100947.31;;;17.85;65.34
20889;BME280;10604;51.976;7.594;2023-05-21T04:05:52;100953.50;;;17.70;65.00
20889;BME280;10604;51.976;7.594;2023-05-21T04:08:18;100953.00;;;17.79;65.46
20889;BME280;10604;51.976;7.594;2023-05-21T04:10:43;100956.81;;;17.75;65.73
20889;BME280;10604;51.976;7.594;2023-05-21T04:13:08;100957.56;;;17.77;65.75
20889;BME280;10604;51.976;7.594;2023-05-21T04:15:34;100956.41;;;17.49;65.89
20889;BME280;10604;51.976;7.594;2023-05-21T04:18:00;100963.53;;;17.82;65.87
20889;BME280;10604;51.976;7.594;2023-05-21T04:20:25;100965.06;;;17.86;65.62
20889;BME280;10604;51.976;7.594;2023-05-21T04:22:50;100963.47;;;18.13;64.84
20889;BME280;10604;51.976;7.594;2023-05-21T04:25:16;100971.41;;;17.83;65.62
20889;BME280;10604;51.976;7.594;2023-05-21T04:27:42;100969.69;;;17.98;65.05
20889;BME280;10604;51.976;7.594;2023-05-21T04:30:07;100968.66;;;18.00;65.06
20889;BME280;10604;51.976;7.594;2023-05-21T04:32:33;100971.06;;;18.05;64.98
20889;BME280;10604;51.976;7.594;2023-05-21T04:34:59;100972.28;;;17.99;64.84
20889;BME280;10604;51.976;7.594;2023-05-21T04:37:28;100975.09;;;18.12;64.67
20889;BME280;10604;51.976;7.594;2023-05-21T04:39:54;100978.25;;;18.34;64.62
20889;BME280;10604;51.976;7.594;2023-05-21T04:42:19;100975.06;;;18.44;63.96
20889;BME280;10604;51.976;7.594;2023-05-21T04:44:48;100981.88;;;18.33;64.55
20889;BME280;10604;51.976;7.594;2023-05-21T04:47:13;100975.81;;;18.46;64.01
20889;BME280;10604;51.976;7.594;2023-05-21T04:49:39;100975.63;;;18.49;63.88
20889;BME280;10604;51.976;7.594;2023-05-21T04:52:04;100968.34;;;18.36;64.48
20889;BME280;10604;51.976;7.594;2023-05-21T04:54:29;100972.50;;;18.26;64.67
20889;BME280;10604;51.976;7.594;2023-05-21T04:56:55;100965.16;;;18.46;64.19
20889;BME280;10604;51.976;7.594;2023-05-21T04:59:22;100968.47;;;18.65;64.08
20889;BME280;10604;51.976;7.594;2023-05-21T05:01:47;100975.94;;;18.74;63.75
20889;BME280;10604;51.976;7.594;2023-05-21T05:04:12;100960.28;;;18.68;63.46
20889;BME280;10604;51.976;7.594;2023-05-21T05:06:38;100951.81;;;18.90;63.16
20889;BME280;10604;51.976;7.594;2023-05-21T05:09:03;100960.50;;;18.93;63.01
20889;BME280;10604;51.976;7.594;2023-05-21T05:11:29;100956.50;;;19.00;62.90
20889;BME280;10604;51.976;7.594;2023-05-21T05:13:55;100960.03;;;19.01;62.36
20889;BME280;10604;51.976;7.594;2023-05-21T05:16:21;100956.31;;;19.03;62.23
20889;BME280;10604;51.976;7.594;2023-05-21T05:18:53;100956.88;;;18.94;63.12
20889;BME280;10604;51.976;7.594;2023-05-21T05:21:20;100954.38;;;19.05;62.76
20889;BME280;10604;51.976;7.594;2023-05-21T05:23:46;100956.97;;;19.07;62.86
20889;BME280;10604;51.976;7.594;2023-05-21T05:26:11;100952.09;;;19.13;62.28
20889;BME280;10604;51.976;7.594;2023-05-21T05:28:36;100952.31;;;19.10;62.35
20889;BME280;10604;51.976;7.594;2023-05-21T05:31:02;100952.09;;;19.13;62.49
20889;BME280;10604;51.976;7.594;2023-05-21T05:33:27;100945.88;;;19.41;61.20
20889;BME280;10604;51.976;7.594;2023-05-21T05:35:52;100949.66;;;19.53;61.26
20889;BME280;10604;51.976;7.594;2023-05-21T05:38:18;100946.38;;;19.48;61.68
20889;BME280;10604;51.976;7.594;2023-05-21T05:40:43;100948.84;;;19.65;61.63
20889;BME280;10604;51.976;7.594;2023-05-21T05:43:09;100955.31;;;19.75;61.22
20889;BME280;10604;51.976;7.594;2023-05-21T05:45:34;100951.34;;;19.54;60.98
20889;BME280;10604;51.976;7.594;2023-05-21T05:47:59;100940.16;;;19.47;61.97
20889;BME280;10604;51.976;7.594;2023-05-21T05:50:25;100942.34;;;19.55;61.50
20889;BME280;10604;51.976;7.594;2023-05-21T05:52:51;100942.56;;;19.52;61.42
20889;BME280;10604;51.976;7.594;2023-05-21T05:55:16;100937.34;;;19.77;60.59
20889;BME280;10604;51.976;7.594;2023-05-21T05:57:42;100938.94;;;19.53;61.21
20889;BME280;10604;51.976;7.594;2023-05-21T06:00:08;100938.78;;;19.69;61.46
20889;BME280;10604;51.976;7.594;2023-05-21T06:02:34;100930.25;;;19.76;61.31
20889;BME280;10604;51.976;7.594;2023-05-21T06:05:00;100933.97;;;20.15;60.50
20889;BME280;10604;51.976;7.594;2023-05-21T06:07:27;100932.31;;;20.00;60.60
20889;BME280;10604;51.976;7.594;2023-05-21T06:09:53;100934.16;;;20.12;60.35
20889;BME280;10604;51.976;7.594;2023-05-21T06:12:18;100941.69;;;20.46;59.87
20889;BME280;10604;51.976;7.594;2023-05-21T06:14:44;100933.50;;;20.35;59.56
20889;BME280;10604;51.976;7.594;2023-05-21T06:17:10;100932.50;;;19.97;60.19
20889;BME280;10604;51.976;7.594;2023-05-21T06:19:36;100929.81;;;20.23;60.05
20889;BME280;10604;51.976;7.594;2023-05-21T06:22:01;100939.22;;;20.16;59.62
20889;BME280;10604;51.976;7.594;2023-05-21T06:24:26;100943.31;;;20.22;59.69
20889;BME280;10604;51.976;7.594;2023-05-21T06:26:52;100942.78;;;20.17;60.46
20889;BME280;10604;51.976;7.594;2023-05-21T06:29:17;100937.72;;;20.25;59.78
20889;BME280;10604;51.976;7.594;2023-05-21T06:31:43;100940.19;;;20.42;59.73
20889;BME280;10604;51.976;7.594;2023-05-21T06:34:08;100941.19;;;20.27;59.46
20889;BME280;10604;51.976;7.594;2023-05-21T06:36:35;100944.06;;;20.51;59.29
20889;BME280;10604;51.976;7.594;2023-05-21T06:39:01;100945.88;;;20.50;59.43
20889;BME280;10604;51.976;7.594;2023-05-21T06:41:27;100951.50;;;20.33;60.15
20889;BME280;10604;51.976;7.594;2023-05-21T06:43:53;100942.22;;;20.39;59.86
20889;BME280;10604;51.976;7.594;2023-05-21T06:46:18;100939.00;;;20.46;59.79
20889;BME280;10604;51.976;7.594;2023-05-21T06:48:43;100941.28;;;20.52;59.41
20889;BME280;10604;51.976;7.594;2023-05-21T06:51:10;100944.06;;;20.63;59.17
20889;BME280;10604;51.976;7.594;2023-05-21T06:53:35;100938.00;;;20.87;58.89
20889;BME280;10604;51.976;7.594;2023-05-21T06:56:01;100933.59;;;20.86;58.29
20889;BME280;10604;51.976;7.594;2023-05-21T06:58:26;100934.44;;;20.86;58.81
20889;BME280;10604;51.976;7.594;2023-05-21T07:00:58;100930.16;;;21.09;58.52
20889;BME280;10604;51.976;7.594;2023-05-21T07:03:24;100930.47;;;21.04;58.36
20889;BME280;10604;51.976;7.594;2023-05-21T07:05:51;100925.16;;;21.17;57.57
20889;BME280;10604;51.976;7.594;2023-05-21T07:08:17;100921.13;;;21.35;57.01
20889;BME280;10604;51.976;7.594;2023-05-21T07:10:44;100921.56;;;21.29;57.21
20889;BME280;10604;51.976;7.594;2023-05-21T07:13:10;100929.31;;;21.21;57.41
20889;BME280;10604;51.976;7.594;2023-05-21T07:15:35;100925.56;;;21.60;56.75
20889;BME280;10604;51.976;7.594;2023-05-21T07:18:01;100922.41;;;21.42;56.73
20889;BME280;10604;51.976;7.594;2023-05-21T07:20:26;100926.06;;;21.41;56.69
20889;BME280;10604;51.976;7.594;2023-05-21T07:22:51;100924.94;;;21.57;56.44
20889;BME280;10604;51.976;7.594;2023-05-21T07:25:17;100926.56;;;21.83;56.25
20889;BME280;10604;51.976;7.594;2023-05-21T07:27:42;100926.53;;;22.19;55.11
20889;BME280;10604;51.976;7.594;2023-05-21T07:30:08;100938.03;;;21.61;55.54
20889;BME280;10604;51.976;7.594;2023-05-21T07:32:34;100929.91;;;21.86;54.80
20889;BME280;10604;51.976;7.594;2023-05-21T07:34:59;100926.81;;;21.80;55.72
20889;BME280;10604;51.976;7.594;2023-05-21T07:37:27;100920.31;;;21.95;55.21
20889;BME280;10604;51.976;7.594;2023-05-21T07:39:56;100925.97;;;22.03;55.77
20889;BME280;10604;51.976;7.594;2023-05-21T07:42:23;100922.13;;;22.18;54.43
20889;BME280;10604;51.976;7.594;2023-05-21T07:44:48;100936.16;;;22.46;53.96
20889;BME280;10604;51.976;7.594;2023-05-21T07:47:14;100932.88;;;22.88;52.77
20889;BME280;10604;51.976;7.594;2023-05-21T07:49:39;100937.03;;;22.81;53.60
20889;BME280;10604;51.976;7.594;2023-05-21T07:52:05;100930.94;;;22.90;52.36
20889;BME280;10604;51.976;7.594;2023-05-21T07:54:30;100937.72;;;22.72;53.02
20889;BME280;10604;51.976;7.594;2023-05-21T07:56:56;100937.53;;;22.97;53.26
20889;BME280;10604;51.976;7.594;2023-05-21T07:59:21;100934.28;;;22.70;53.36
20889;BME280;10604;51.976;7.594;2023-05-21T08:01:47;100941.47;;;22.93;53.12
20889;BME280;10604;51.976;7.594;2023-05-21T08:04:12;100941.00;;;23.22;51.91
20889;BME280;10604;51.976;7.594;2023-05-21T08:06:37;100934.16;;;23.62;51.66
20889;BME280;10604;51.976;7.594;2023-05-21T08:09:03;100942.94;;;23.20;51.49
20889;BME280;10604;51.976;7.594;2023-05-21T08:11:30;100938.25;;;23.89;50.34
20889;BME280;10604;51.976;7.594;2023-05-21T08:13:55;100938.78;;;23.60;50.23
20889;BME280;10604;51.976;7.594;2023-05-21T08:16:21;100946.47;;;24.30;49.03
20889;BME280;10604;51.976;7.594;2023-05-21T08:18:47;100949.16;;;24.83;49.05
20889;BME280;10604;51.976;7.594;2023-05-21T08:21:13;100945.19;;;24.45;48.66
20889;BME280;10604;51.976;7.594;2023-05-21T08:23:38;100942.75;;;24.42;48.60
20889;BME280;10604;51.976;7.594;2023-05-21T08:26:04;100939.78;;;24.45;49.14
20889;BME280;10604;51.976;7.594;2023-05-21T08:28:31;100945.91;;;24.68;48.78
20889;BME280;10604;51.976;7.594;2023-05-21T08:30:56;100941.50;;;24.88;48.39
20889;BME280;10604;51.976;7.594;2023-05-21T08:33:21;100940.31;;;24.81;48.46
20889;BME280;10604;51.976;7.594;2023-05-21T08:35:47;100945.06;;;24.88;48.14
20889;BME280;10604;51.976;7.594;2023-05-21T08:38:12;100929.16;;;25.46;47.41
20889;BME280;10604;51.976;7.594;2023-05-21T08:40:38;100935.44;;;25.16;47.46
20889;BME280;10604;51.976;7.594;2023-05-21T08:43:03;100941.75;;;25.26;47.35
20889;BME280;10604;51.976;7.594;2023-05-21T08:45:33;100929.47;;;25.22;47.08
20889;BME280;10604;51.976;7.594;2023-05-21T08:48:01;100922.09;;;25.24;47.01
20889;BME280;10604;51.976;7.594;2023-05-21T08:50:28;100926.28;;;25.68;46.58
20889;BME280;10604;51.976;7.594;2023-05-21T08:52:55;100928.03;;;25.98;46.36
20889;BME280;10604;51.976;7.594;2023-05-21T08:55:23;100921.88;;;25.77;46.40
20889;BME280;10604;51.976;7.594;2023-05-21T08:57:48;100917.06;;;25.71;47.36
20889;BME280;10604;51.976;7.594;2023-05-21T09:00:15;100912.81;;;25.48;46.89
20889;BME280;10604;51.976;7.594;2023-05-21T09:02:40;100911.59;;;25.21;47.50
20889;BME280;10604;51.976;7.594;2023-05-21T09:05:08;100906.44;;;25.18;48.61
20889;BME280;10604;51.976;7.594;2023-05-21T09:07:42;100914.19;;;25.32;47.57
20889;BME280;10604;51.976;7.594;2023-05-21T09:10:13;100919.59;;;24.08;49.04
20889;BME280;10604;51.976;7.594;2023-05-21T09:12:39;100917.56;;;25.25;47.76
20889;BME280;10604;51.976;7.594;2023-05-21T09:15:05;100911.59;;;25.21;48.33
20889;BME280;10604;51.976;7.594;2023-05-21T09:17:31;100908.66;;;25.64;47.36
20889;BME280;10604;51.976;7.594;2023-05-21T09:20:06;100911.16;;;24.54;48.14
20889;BME280;10604;51.976;7.594;2023-05-21T09:22:41;100902.03;;;25.17;48.30
20889;BME280;10604;51.976;7.594;2023-05-21T09:25:07;100898.94;;;25.62;47.30
20889;BME280;10604;51.976;7.594;2023-05-21T09:27:33;100904.00;;;25.46;47.42
20889;BME280;10604;51.976;7.594;2023-05-21T09:29:58;100898.47;;;25.07;48.33
20889;BME280;10604;51.976;7.594;2023-05-21T09:32:24;100903.44;;;25.52;47.63
20889;BME280;10604;51.976;7.594;2023-05-21T09:34:49;100907.16;;;24.90;48.81
20889;BME280;10604;51.976;7.594;2023-05-21T09:37:14;100903.47;;;24.91;48.86
20889;BME280;10604;51.976;7.594;2023-05-21T09:39:40;100906.59;;;25.57;48.72
20889;BME280;10604;51.976;7.594;2023-05-21T09:42:06;100909.53;;;25.84;47.44
20889;BME280;10604;51.976;7.594;2023-05-21T09:44:31;100900.13;;;26.65;46.29
20889;BME280;10604;51.976;7.594;2023-05-21T09:46:56;100909.81;;;26.58;45.00
20889;BME280;10604;51.976;7.594;2023-05-21T09:49:25;100899.78;;;27.07;44.75
20889;BME280;10604;51.976;7.594;2023-05-21T09:51:53;100908.72;;;27.44;43.67
20889;BME280;10604;51.976;7.594;2023-05-21T09:54:19;100913.94;;;27.83;43.66
20889;BME280;10604;51.976;7.594;2023-05-21T09:56:45;100900.88;;;27.14;45.37
20889;BME280;10604;51.976;7.594;2023-05-21T09:59:10;100902.50;;;27.34;44.05
20889;BME280;10604;51.976;7.594;2023-05-21T10:01:35;100900.06;;;27.04;43.98
20889;BME280;10604;51.976;7.594;2023-05-21T10:04:03;100900.91;;;27.04;44.50
20889;BME280;10604;51.976;7.594;2023-05-21T10:06:30;100900.91;;;27.69;43.76
20889;BME280;10604;51.976;7.594;2023-05-21T10:09:01;100898.94;;;27.34;43.74
20889;BME280;10604;51.976;7.594;2023-05-21T10:11:29;100894.88;;;27.75;43.58
20889;BME280;10604;51.976;7.594;2023-05-21T10:14:04;100894.66;;;28.03;42.78
20889;BME280;10604;51.976;7.594;2023-05-21T10:16:33;100893.19;;;28.44;42.38
20889;BME280;10604;51.976;7.594;2023-05-21T10:18:59;100888.31;;;28.13;42.39
20889;BME280;10604;51.976;7.594;2023-05-21T10:21:25;100880.25;;;28.03;42.67
20889;BME280;10604;51.976;7.594;2023-05-21T10:23:50;100884.13;;;27.83;43.42
20889;BME280;10604;51.976;7.594;2023-05-21T10:26:17;100877.13;;;27.62;44.09
20889;BME280;10604;51.976;7.594;2023-05-21T10:28:43;100862.78;;;27.52;43.68
20889;BME280;10604;51.976;7.594;2023-05-21T10:31:10;100864.06;;;27.48;43.48
20889;BME280;10604;51.976;7.594;2023-05-21T10:33:35;100857.59;;;27.59;43.58
20889;BME280;10604;51.976;7.594;2023-05-21T10:36:02;100859.69;;;27.65;44.04
20889;BME280;10604;51.976;7.594;2023-05-21T10:38:27;100861.66;;;28.26;43.18
20889;BME280;10604;51.976;7.594;2023-05-21T10:40:53;100861.09;;;28.66;43.00
20889;BME280;10604;51.976;7.594;2023-05-21T10:46:15;100854.25;;;28.54;41.68
20889;BME280;10604;51.976;7.594;2023-05-21T10:56:40;100854.81;;;28.83;41.85
20889;BME280;10604;51.976;7.594;2023-05-21T11:02:11;100847.00;;;29.72;40.71
20889;BME280;10604;51.976;7.594;2023-05-21T11:04:37;100845.97;;;29.65;40.40
20889;BME280;10604;51.976;7.594;2023-05-21T11:07:06;100837.97;;;29.55;42.01
20889;BME280;10604;51.976;7.594;2023-05-21T11:09:31;100843.72;;;29.44;40.59
20889;BME280;10604;51.976;7.594;2023-05-21T11:11:57;100834.84;;;29.00;41.14
20889;BME280;10604;51.976;7.594;2023-05-21T11:14:27;100834.97;;;28.91;41.89
20889;BME280;10604;51.976;7.594;2023-05-21T11:16:55;100840.34;;;29.16;41.85
20889;BME280;10604;51.976;7.594;2023-05-21T11:19:21;100831.03;;;28.85;42.00
20889;BME280;10604;51.976;7.594;2023-05-21T11:21:49;100823.97;;;29.34;41.29
20889;BME280;10604;51.976;7.594;2023-05-21T11:24:18;100828.59;;;28.48;42.65
20889;BME280;10604;51.976;7.594;2023-05-21T11:29:11;100824.53;;;28.26;43.15
20889;BME280;10604;51.976;7.594;2023-05-21T11:31:37;100828.88;;;28.45;43.01
20889;BME280;10604;51.976;7.594;2023-05-21T11:34:17;100829.09;;;28.52;43.39
20889;BME280;10604;51.976;7.594;2023-05-21T11:36:43;100843.03;;;28.57;43.37
20889;BME280;10604;51.976;7.594;2023-05-21T11:39:10;100835.97;;;28.64;42.19
20889;BME280;10604;51.976;7.594;2023-05-21T11:47:03;100836.06;;;29.40;41.73
20889;BME280;10604;51.976;7.594;2023-05-21T11:49:28;100834.66;;;29.36;41.84
20889;BME280;10604;51.976;7.594;2023-05-21T11:51:54;100831.78;;;30.04;41.25
20889;BME280;10604;51.976;7.594;2023-05-21T11:54:20;100828.34;;;30.58;39.66
20889;BME280;10604;51.976;7.594;2023-05-21T11:56:45;100838.69;;;29.82;40.72
20889;BME280;10604;51.976;7.594;2023-05-21T11:59:12;100832.13;;;30.33;40.44
20889;BME280;10604;51.976;7.594;2023-05-21T12:01:38;100832.97;;;30.17;40.21
20889;BME280;10604;51.976;7.594;2023-05-21T12:04:05;100820.88;;;30.60;40.00
20889;BME280;10604;51.976;7.594;2023-05-21T12:06:30;100828.69;;;30.31;40.23
20889;BME280;10604;51.976;7.594;2023-05-21T12:08:56;100826.97;;;30.62;39.83
20889;BME280;10604;51.976;7.594;2023-05-21T12:11:22;100831.03;;;29.85;40.36
20889;BME280;10604;51.976;7.594;2023-05-21T12:13:47;100822.41;;;29.32;42.58
20889;BME280;10604;51.976;7.594;2023-05-21T12:16:14;100817.41;;;29.77;41.39
20889;BME280;10604;51.976;7.594;2023-05-21T12:18:40;100814.06;;;30.32;40.62
20889;BME280;10604;51.976;7.594;2023-05-21T12:21:05;100827.69;;;30.00;41.27
20889;BME280;10604;51.976;7.594;2023-05-21T12:23:30;100823.72;;;30.75;40.17
20889;BME280;10604;51.976;7.594;2023-05-21T12:25:56;100820.47;;;30.80;40.59
20889;BME280;10604;51.976;7.594;2023-05-21T12:28:21;100831.28;;;31.12;40.29
20889;BME280;10604;51.976;7.594;2023-05-21T12:30:48;100836.66;;;31.28;38.88
20889;BME280;10604;51.976;7.594;2023-05-21T12:33:13;100833.41;;;31.56;38.37
20889;BME280;10604;51.976;7.594;2023-05-21T12:35:43;100828.63;;;31.66;38.58
20889;BME280;10604;51.976;7.594;2023-05-21T12:38:09;100832.75;;;31.62;37.67
20889;BME280;10604;51.976;7.594;2023-05-21T12:40:34;100832.28;;;31.81;38.23
20889;BME280;10604;51.976;7.594;2023-05-21T12:43:00;100837.06;;;31.17;38.64
20889;BME280;10604;51.976;7.594;2023-05-21T12:45:26;100828.00;;;31.25;38.16
20889;BME280;10604;51.976;7.594;2023-05-21T12:47:51;100831.22;;;30.65;40.24
20889;BME280;10604;51.976;7.594;2023-05-21T12:50:20;100818.34;;;31.06;39.65
20889;BME280;10604;51.976;7.594;2023-05-21T12:52:45;100825.47;;;31.15;39.29
20889;BME280;10604;51.976;7.594;2023-05-21T12:55:14;100823.72;;;31.84;38.68
20889;BME280;10604;51.976;7.594;2023-05-21T12:57:40;100819.78;;;31.64;37.60
20889;BME280;10604;51.976;7.594;2023-05-21T13:00:07;100824.19;;;32.18;37.39
20889;BME280;10604;51.976;7.594;2023-05-21T13:02:42;100827.97;;;31.56;38.02
20889;BME280;10604;51.976;7.594;2023-05-21T13:05:08;100827.22;;;31.39;38.30
20889;BME280;10604;51.976;7.594;2023-05-21T13:07:34;100815.69;;;30.82;39.29
20889;BME280;10604;51.976;7.594;2023-05-21T13:10:00;100817.44;;;30.58;40.21